Flight Track Log - Related Links

Times and Time Zones

All times are in EST time to prevent confusion due to time zone crossing. See the EEA2755 flight status page for this flight to view local times or setup timezone preferences in your user account.

Time Position Orientation Groundspeed Altitude Reporting Facility
EST Latitude Longitude Course Direction KTS MPH feet Rate Location/Type
Mon 10:30:00 PM 35.1355 119.2067 26° Northeast  Level Estimated
Mon 10:31:00 PM 35.2185 119.2562 26° Northeast  Level Estimated
Mon 10:32:00 PM 35.3014 119.3057 26° Northeast  Level Estimated
Mon 10:33:00 PM 35.3844 119.3554 26° Northeast  Level Estimated
Mon 10:34:00 PM 35.4673 119.4051 26° Northeast  Level Estimated
Mon 10:35:00 PM 35.5502 119.4550 26° Northeast  Level Estimated
Mon 10:36:00 PM 35.6331 119.5050 26° Northeast  Level Estimated
Mon 10:37:00 PM 35.7159 119.5550 26° Northeast  Level Estimated
Mon 10:38:00 PM 35.7987 119.6052 26° Northeast  Level Estimated
Mon 10:39:00 PM 35.8815 119.6555 26° Northeast  Level Estimated
Mon 10:40:00 PM 35.9643 119.7058 26° Northeast  Level Estimated
Mon 10:41:00 PM 36.0471 119.7563 26° Northeast  Level Estimated
Mon 10:42:00 PM 36.1298 119.8069 26° Northeast  Level Estimated
Mon 10:43:00 PM 36.2126 119.8576 26° Northeast  Level Estimated
Mon 10:44:00 PM 36.2953 119.9084 26° Northeast  Level Estimated
Mon 10:45:00 PM 36.3779 119.9593 26° Northeast  Level Estimated
Mon 10:46:00 PM 36.4606 120.0104 26° Northeast  Level Estimated
Mon 10:47:00 PM 36.5433 120.0615 26° Northeast  Level Estimated
Mon 10:48:00 PM 36.6259 120.1127 26° Northeast  Level Estimated
Mon 10:49:00 PM 36.7085 120.1641 26° Northeast  Level Estimated
Mon 10:50:00 PM 36.7910 120.2155 27° Northeast  Level Estimated
Mon 10:51:00 PM 36.8736 120.2671 27° Northeast  Level Estimated
Mon 10:52:00 PM 36.9561 120.3188 27° Northeast  Level Estimated
Mon 10:53:00 PM 37.0386 120.3706 27° Northeast  Level Estimated
Mon 10:54:00 PM 37.1211 120.4225 27° Northeast  Level Estimated
Mon 10:55:00 PM 37.2035 120.4745 27° Northeast  Level Estimated
Mon 10:56:00 PM 37.2860 120.5266 27° Northeast  Level Estimated
Mon 10:57:00 PM 37.3684 120.5789 27° Northeast  Level Estimated
Mon 10:58:00 PM 37.4508 120.6313 27° Northeast  Level Estimated
Mon 10:59:00 PM 37.5331 120.6837 27° Northeast  Level Estimated
Mon 11:00:00 PM 37.6155 120.7363 27° Northeast  Level Estimated
Mon 11:01:00 PM 37.6978 120.7890 27° Northeast  Level Estimated
Mon 11:02:00 PM 37.7801 120.8419 27° Northeast  Level Estimated
Mon 11:03:00 PM 37.8624 120.8948 27° Northeast  Level Estimated
Mon 11:04:00 PM 37.9446 120.9479 27° Northeast  Level Estimated
Mon 11:05:00 PM 38.0269 121.0011 27° Northeast  Level Estimated
Mon 11:06:00 PM 38.1091 121.0544 27° Northeast  Level Estimated
Mon 11:07:00 PM 38.1912 121.1078 27° Northeast  Level Estimated
Mon 11:08:00 PM 38.2734 121.1613 27° Northeast  Level Estimated
Mon 11:09:00 PM 38.3555 121.2150 27° Northeast  Level Estimated
Mon 11:10:00 PM 38.4376 121.2688 27° Northeast  Level Estimated
Mon 11:11:00 PM 38.5197 121.3227 27° Northeast  Level Estimated
Mon 11:12:00 PM 38.6018 121.3767 27° Northeast  Level Estimated
Mon 11:13:00 PM 38.6838 121.4309 27° Northeast  Level Estimated
Mon 11:14:00 PM 38.7658 121.4852 27° Northeast  Level Estimated
Mon 11:15:00 PM 38.8478 121.5396 27° Northeast  Level Estimated
Mon 11:16:00 PM 38.9297 121.5941 27° Northeast  Level Estimated
Mon 11:17:00 PM 39.0117 121.6488 27° Northeast  Level Estimated
Mon 11:18:00 PM 39.0936 121.7036 27° Northeast  Level Estimated
Mon 11:19:00 PM 39.1754 121.7585 27° Northeast  Level Estimated
Mon 11:20:00 PM 39.2573 121.8135 28° Northeast  Level Estimated
Mon 11:21:00 PM 39.3391 121.8687 28° Northeast  Level Estimated
Mon 11:22:00 PM 39.4209 121.9240 28° Northeast  Level Estimated
Mon 11:23:00 PM 39.5027 121.9794 28° Northeast  Level Estimated
Mon 11:24:00 PM 39.5844 122.0350 28° Northeast  Level Estimated
Mon 11:25:00 PM 39.6662 122.0907 28° Northeast  Level Estimated
Mon 11:26:00 PM 39.7478 122.1465 28° Northeast  Level Estimated
Mon 11:27:00 PM 39.8295 122.2024 28° Northeast  Level Estimated
Mon 11:28:00 PM 39.9112 122.2585 28° Northeast  Level Estimated
Mon 11:29:00 PM 39.9928 122.3147 28° Northeast  Level Estimated
Mon 11:30:00 PM 40.0744 122.3711 28° Northeast  Level Estimated
Mon 11:31:00 PM 40.1559 122.4276 28° Northeast  Level Estimated
Mon 11:32:00 PM 40.2374 122.4842 28° Northeast  Level Estimated
Mon 11:33:00 PM 40.3190 122.5410 28° Northeast  Level Estimated
Mon 11:34:00 PM 40.4004 122.5979 28° Northeast  Level Estimated
Mon 11:35:00 PM 40.4819 122.6549 28° Northeast  Level Estimated
Mon 11:36:00 PM 40.5633 122.7121 28° Northeast  Level Estimated
Mon 11:37:00 PM 40.6447 122.7694 28° Northeast  Level Estimated
Mon 11:38:00 PM 40.7261 122.8269 28° Northeast  Level Estimated
Mon 11:39:00 PM 40.8074 122.8845 28° Northeast  Level Estimated
Mon 11:40:00 PM 40.8887 122.9422 28° Northeast  Level Estimated
Mon 11:41:00 PM 40.9700 123.0001 28° Northeast  Level Estimated
Mon 11:42:00 PM 41.0512 123.0581 28° Northeast  Level Estimated
Mon 11:43:00 PM 41.1324 123.1162 28° Northeast  Level Estimated
Mon 11:44:00 PM 41.2136 123.1746 28° Northeast  Level Estimated
Mon 11:45:00 PM 41.2948 123.2330 28° Northeast  Level Estimated
Mon 11:46:00 PM 41.3759 123.2916 28° Northeast  Level Estimated
Mon 11:47:00 PM 41.4570 123.3504 28° Northeast  Level Estimated

Login

Don't have an account? Register now (free) for customized features, flight alerts, and more!